createdAt,value
2022-08-26T00:00:53.467Z,100060.98
2022-08-26T00:03:23.672Z,100057.88
2022-08-26T00:05:52.558Z,100057.93
2022-08-26T00:08:21.980Z,100052.23
2022-08-26T00:10:50.367Z,100050.25
2022-08-26T00:13:20.319Z,100046.49
2022-08-26T00:15:53.313Z,100042.16
2022-08-26T00:18:24.387Z,100037.89
2022-08-26T00:20:55.034Z,100035.42
2022-08-26T00:23:24.187Z,100033.70
2022-08-26T00:25:53.693Z,100032.35
2022-08-26T00:28:22.862Z,100035.61
2022-08-26T00:30:52.863Z,100034.46
2022-08-26T00:33:23.782Z,100031.38
2022-08-26T00:35:52.312Z,100034.21
2022-08-26T00:38:22.286Z,100034.00
2022-08-26T00:40:56.323Z,100033.42
2022-08-26T00:43:26.392Z,100038.66
2022-08-26T00:46:11.342Z,100037.91
2022-08-26T00:48:42.946Z,100035.01
2022-08-26T00:51:19.487Z,100038.29
2022-08-26T00:54:05.353Z,100037.38
2022-08-26T00:56:44.194Z,100034.20
2022-08-26T00:59:17.949Z,100033.69
2022-08-26T01:01:47.077Z,100035.20
2022-08-26T01:04:23.190Z,100031.03
2022-08-26T01:06:55.019Z,100028.02
2022-08-26T01:09:24.420Z,100030.59
2022-08-26T01:11:57.307Z,100023.87
2022-08-26T01:14:32.008Z,100023.96
2022-08-26T01:17:05.165Z,100026.08
2022-08-26T01:19:47.014Z,100026.46
2022-08-26T01:22:28.293Z,100022.84
2022-08-26T01:25:00.846Z,100026.95
2022-08-26T01:27:33.618Z,100025.70
2022-08-26T01:30:06.578Z,100026.54
2022-08-26T01:32:36.346Z,100032.21
2022-08-26T01:35:08.842Z,100034.54
2022-08-26T01:37:42.263Z,100036.37
2022-08-26T01:40:20.574Z,100031.85
2022-08-26T01:42:49.483Z,100031.41
2022-08-26T01:45:26.825Z,100029.59
2022-08-26T01:47:59.543Z,100031.00
2022-08-26T01:50:33.523Z,100033.05
2022-08-26T01:53:09.523Z,100030.39
2022-08-26T01:55:44.607Z,100025.90
2022-08-26T01:58:26.436Z,100028.39
2022-08-26T02:00:55.226Z,100022.45
2022-08-26T02:03:29.589Z,100024.36
2022-08-26T02:06:04.595Z,100023.20
2022-08-26T02:08:54.159Z,100024.98
2022-08-26T02:11:23.024Z,100022.90
2022-08-26T02:13:59.787Z,100021.66
2022-08-26T02:16:32.725Z,100018.55
2022-08-26T02:19:03.222Z,100018.67
2022-08-26T02:21:33.261Z,100017.42
2022-08-26T02:24:19.634Z,100023.77
2022-08-26T02:26:49.983Z,100024.59
2022-08-26T02:29:24.378Z,100024.41
2022-08-26T02:32:02.409Z,100029.53
2022-08-26T02:34:33.354Z,100035.55
2022-08-26T02:37:12.612Z,100032.67
2022-08-26T02:39:42.997Z,100035.05
2022-08-26T02:42:11.644Z,100034.89
2022-08-26T02:44:40.262Z,100028.36
2022-08-26T02:47:08.778Z,100028.34
2022-08-26T02:49:38.101Z,100023.77
2022-08-26T02:52:06.839Z,100020.89
2022-08-26T02:54:36.017Z,100015.38
2022-08-26T02:57:06.188Z,100014.45
2022-08-26T02:59:36.089Z,100010.88
2022-08-26T03:02:05.484Z,100013.24
2022-08-26T03:04:34.086Z,100012.56
2022-08-26T03:07:02.691Z,100007.58
2022-08-26T03:09:32.455Z,100004.81
2022-08-26T03:12:02.183Z,99999.83
2022-08-26T03:14:30.587Z,100000.80
2022-08-26T03:17:01.463Z,99994.91
2022-08-26T03:19:31.143Z,99991.80
2022-08-26T03:22:00.156Z,99993.92
2022-08-26T03:24:28.938Z,99996.03
2022-08-26T03:26:57.421Z,99999.73
2022-08-26T03:29:44.498Z,99996.92
2022-08-26T03:32:17.966Z,99997.36
2022-08-26T03:34:47.101Z,99997.59
2022-08-26T03:37:15.504Z,99999.89
2022-08-26T03:39:43.927Z,99998.02
2022-08-26T03:42:12.325Z,99995.48
2022-08-26T03:44:42.237Z,99994.44
2022-08-26T03:47:11.112Z,99996.39
2022-08-26T03:49:39.932Z,100000.86
2022-08-26T03:52:08.615Z,100002.03
2022-08-26T03:54:37.583Z,100006.52
2022-08-26T03:57:05.942Z,100002.01
2022-08-26T03:59:34.264Z,99997.60
2022-08-26T04:02:03.571Z,100001.20
2022-08-26T04:04:43.636Z,100003.77
2022-08-26T04:07:12.603Z,100007.26
2022-08-26T04:09:41.008Z,100006.92
2022-08-26T04:12:10.820Z,100005.86
2022-08-26T04:14:39.995Z,100001.89
2022-08-26T04:17:08.322Z,100001.02
2022-08-26T04:19:36.596Z,100002.64
2022-08-26T04:22:05.150Z,100003.87
2022-08-26T04:24:34.710Z,100005.13
2022-08-26T04:27:03.575Z,100011.83
2022-08-26T04:29:32.554Z,100012.02
2022-08-26T04:32:02.892Z,100010.45
2022-08-26T04:34:32.444Z,100014.99
2022-08-26T04:37:02.146Z,100017.82
2022-08-26T04:39:31.364Z,100013.73
2022-08-26T04:42:00.629Z,100012.50
2022-08-26T04:44:30.583Z,100014.40
2022-08-26T04:46:58.940Z,100012.63
2022-08-26T04:49:27.761Z,100012.96
2022-08-26T04:51:56.197Z,100013.55
2022-08-26T04:54:25.138Z,100014.30
2022-08-26T04:56:53.637Z,100010.60
2022-08-26T04:59:22.182Z,100006.80
2022-08-26T05:01:56.381Z,100004.41
2022-08-26T05:04:25.279Z,100001.98
2022-08-26T05:06:59.216Z,100002.01
2022-08-26T05:09:30.737Z,100007.61
2022-08-26T05:11:59.114Z,100006.79
2022-08-26T05:14:28.054Z,100006.27
2022-08-26T05:16:56.477Z,100005.93
2022-08-26T05:19:25.357Z,100006.63
2022-08-26T05:21:56.358Z,100009.84
2022-08-26T05:24:24.897Z,100011.28
2022-08-26T05:26:53.459Z,100013.52
2022-08-26T05:29:21.919Z,100012.83
2022-08-26T05:31:52.620Z,100012.15
2022-08-26T05:34:21.254Z,100014.06
2022-08-26T05:36:49.741Z,100017.11
2022-08-26T05:39:18.913Z,100018.46
2022-08-26T05:41:47.730Z,100016.86
2022-08-26T05:44:18.903Z,100019.54
2022-08-26T05:46:47.279Z,100020.08
2022-08-26T05:49:16.339Z,100019.39
2022-08-26T05:51:47.737Z,100019.64
2022-08-26T05:54:21.376Z,100011.95
2022-08-26T05:56:52.170Z,100013.42
2022-08-26T05:59:24.283Z,100015.33
2022-08-26T06:01:55.148Z,100011.23
2022-08-26T06:04:29.047Z,100013.63
2022-08-26T06:06:59.153Z,100010.31
2022-08-26T06:09:27.789Z,100008.91
2022-08-26T06:11:58.709Z,100012.52
2022-08-26T06:14:27.151Z,100011.36
2022-08-26T06:16:55.591Z,100009.75
2022-08-26T06:19:23.972Z,100008.83
2022-08-26T06:21:54.743Z,100010.27
2022-08-26T06:24:42.311Z,100010.18
2022-08-26T06:27:13.743Z,100013.38
2022-08-26T06:29:42.618Z,100014.84
2022-08-26T06:32:11.021Z,100011.22
2022-08-26T06:34:39.501Z,100015.30
2022-08-26T06:37:23.842Z,100009.55
2022-08-26T06:39:52.211Z,100011.55
2022-08-26T06:42:24.010Z,100007.64
2022-08-26T06:44:52.376Z,100010.08
2022-08-26T06:47:20.735Z,100008.54
2022-08-26T06:49:49.175Z,100008.30
2022-08-26T06:52:24.252Z,100006.37
2022-08-26T06:54:53.052Z,100004.65
2022-08-26T06:57:21.411Z,100005.15
2022-08-26T06:59:51.174Z,100007.95
2022-08-26T07:02:20.787Z,100010.48
2022-08-26T07:04:51.194Z,100016.19
2022-08-26T07:07:22.019Z,100015.39
2022-08-26T07:09:52.390Z,100008.23
2022-08-26T07:12:21.451Z,100012.04
2022-08-26T07:14:50.161Z,100011.05
2022-08-26T07:17:19.452Z,100012.30
2022-08-26T07:19:49.078Z,100017.41
2022-08-26T07:22:18.847Z,100013.48
2022-08-26T07:24:47.159Z,100012.95
2022-08-26T07:27:17.589Z,100010.65
2022-08-26T07:29:46.423Z,100010.34
2022-08-26T07:32:17.097Z,100011.13
2022-08-26T07:34:46.899Z,100007.66
2022-08-26T07:37:15.654Z,100005.23
2022-08-26T07:39:47.479Z,100010.02
2022-08-26T07:42:20.453Z,100007.33
2022-08-26T07:44:49.183Z,100011.04
2022-08-26T07:47:24.932Z,100006.63
2022-08-26T07:49:57.665Z,100006.64
2022-08-26T07:52:29.626Z,100007.51
2022-08-26T07:55:01.223Z,100007.63
2022-08-26T07:57:30.644Z,100007.58
2022-08-26T07:59:59.755Z,100007.14
2022-08-26T08:02:29.935Z,100003.88
2022-08-26T08:04:58.529Z,100004.39
2022-08-26T08:07:44.317Z,100005.91
2022-08-26T08:10:21.448Z,100007.05
2022-08-26T08:12:56.340Z,100006.64
2022-08-26T08:15:30.005Z,100003.65
2022-08-26T08:18:00.615Z,100000.58
2022-08-26T08:20:30.540Z,100002.40
2022-08-26T08:23:01.453Z,99999.05
2022-08-26T08:25:34.592Z,100000.58
2022-08-26T08:28:03.504Z,99997.98
2022-08-26T08:30:32.084Z,99997.23
2022-08-26T08:33:03.583Z,99998.41
2022-08-26T08:35:31.879Z,99996.91
2022-08-26T08:38:00.949Z,99991.77
2022-08-26T08:40:32.765Z,99989.07
2022-08-26T08:43:09.780Z,99988.36
2022-08-26T08:45:47.793Z,99989.88
2022-08-26T08:48:43.756Z,99987.61
2022-08-26T08:51:35.636Z,99979.41
2022-08-26T08:54:04.944Z,99980.70
2022-08-26T08:56:46.898Z,99981.55
2022-08-26T08:59:21.779Z,99983.77
2022-08-26T09:02:11.144Z,99977.02
2022-08-26T09:05:17.530Z,99977.13
2022-08-26T09:08:16.150Z,99977.98
2022-08-26T09:11:01.089Z,99976.31
2022-08-26T09:13:31.715Z,99976.31
2022-08-26T09:16:10.151Z,99975.88
2022-08-26T09:19:04.617Z,99978.58
2022-08-26T09:21:33.600Z,99978.08
2022-08-26T09:24:04.067Z,99972.98
2022-08-26T09:29:41.781Z,99966.62
2022-08-26T09:32:26.556Z,99964.16
2022-08-26T09:35:03.374Z,99964.05
2022-08-26T09:40:28.081Z,99962.66
2022-08-26T09:43:22.490Z,99964.95
2022-08-26T09:45:59.543Z,99962.12
2022-08-26T09:48:36.115Z,99963.94
2022-08-26T09:51:27.623Z,99961.62
2022-08-26T09:54:00.188Z,99960.83
2022-08-26T09:56:36.698Z,99957.71
2022-08-26T09:59:10.941Z,99953.59
2022-08-26T10:01:43.545Z,99953.21
2022-08-26T10:04:30.892Z,99951.73
2022-08-26T10:07:05.329Z,99952.05
2022-08-26T10:09:45.606Z,99949.29
2022-08-26T10:12:21.236Z,99946.23
2022-08-26T10:14:59.105Z,99945.88
2022-08-26T10:17:34.174Z,99943.55
2022-08-26T10:20:29.679Z,99938.60
2022-08-26T10:23:09.676Z,99943.80
2022-08-26T10:26:00.207Z,99943.45
2022-08-26T10:28:56.250Z,99936.33
2022-08-26T10:31:41.307Z,99933.98
2022-08-26T10:34:12.508Z,99927.23
2022-08-26T10:37:14.481Z,99926.69
2022-08-26T10:40:05.375Z,99924.81
2022-08-26T10:42:58.773Z,99923.25
2022-08-26T10:45:42.894Z,99920.07
2022-08-26T10:48:21.300Z,99919.33
2022-08-26T10:50:50.435Z,99915.50
2022-08-26T10:53:32.618Z,99909.66
2022-08-26T10:56:26.699Z,99909.20
2022-08-26T10:59:21.746Z,99906.81
2022-08-26T11:02:07.292Z,99909.85
2022-08-26T11:05:23.456Z,99905.95
2022-08-26T11:08:20.772Z,99908.07
2022-08-26T11:10:52.131Z,99903.59
2022-08-26T11:14:01.295Z,99899.33
2022-08-26T11:16:54.137Z,99893.40
2022-08-26T11:19:59.590Z,99888.86
2022-08-26T11:22:47.527Z,99887.63
2022-08-26T11:25:19.476Z,99882.50
2022-08-26T11:27:48.003Z,99880.13
2022-08-26T11:30:18.511Z,99878.56
2022-08-26T11:32:57.764Z,99874.85
2022-08-26T11:35:37.329Z,99872.65
2022-08-26T11:38:29.509Z,99873.04
2022-08-26T11:41:09.502Z,99870.19
2022-08-26T11:43:40.761Z,99865.18
2022-08-26T11:46:13.093Z,99865.29
2022-08-26T11:48:43.645Z,99866.69
2022-08-26T11:51:22.999Z,99863.35
2022-08-26T11:53:51.834Z,99860.30
2022-08-26T11:56:34.682Z,99857.41
2022-08-26T11:59:11.110Z,99859.27
2022-08-26T12:01:43.922Z,99854.98
2022-08-26T12:04:27.004Z,99857.04
2022-08-26T12:06:57.119Z,99852.88
2022-08-26T12:09:30.612Z,99848.59
2022-08-26T12:12:14.874Z,99841.44
2022-08-26T12:14:44.838Z,99835.26
2022-08-26T12:17:27.952Z,99833.21
2022-08-26T12:19:56.291Z,99829.39
2022-08-26T12:22:36.044Z,99822.73
2022-08-26T12:25:08.860Z,99830.69
2022-08-26T12:27:42.360Z,99827.47
2022-08-26T12:30:17.946Z,99823.92
2022-08-26T12:33:03.279Z,99822.73
2022-08-26T12:35:49.401Z,99821.04
2022-08-26T12:38:20.459Z,99817.85
2022-08-26T12:40:50.693Z,99816.05
2022-08-26T12:43:46.099Z,99815.15
2022-08-26T12:46:27.309Z,99818.51
2022-08-26T12:49:01.140Z,99814.06
2022-08-26T12:51:34.976Z,99809.00
2022-08-26T12:54:06.867Z,99807.38
2022-08-26T12:56:39.933Z,99804.23
2022-08-26T12:59:19.960Z,99795.79
2022-08-26T13:01:49.553Z,99790.10
2022-08-26T13:04:46.333Z,99786.21
2022-08-26T13:07:25.657Z,99783.66
2022-08-26T13:09:58.022Z,99783.45
2022-08-26T13:12:37.536Z,99784.97
2022-08-26T13:15:07.318Z,99777.42
2022-08-26T13:17:36.137Z,99772.27
2022-08-26T13:20:05.061Z,99768.89
2022-08-26T13:22:34.422Z,99767.64
2022-08-26T13:25:02.980Z,99766.48
2022-08-26T13:27:31.507Z,99764.20
2022-08-26T13:30:00.445Z,99756.96
2022-08-26T13:32:29.004Z,99760.63
2022-08-26T13:34:57.722Z,99759.53
2022-08-26T13:37:35.014Z,99752.11
2022-08-26T13:40:07.559Z,99749.36
2022-08-26T13:42:36.111Z,99749.33
2022-08-26T13:45:06.393Z,99743.02
2022-08-26T13:47:35.129Z,99741.11
2022-08-26T13:50:05.843Z,99736.64
2022-08-26T13:52:34.399Z,99733.37
2022-08-26T13:55:03.898Z,99724.50
2022-08-26T13:57:32.368Z,99724.56
2022-08-26T14:00:00.801Z,99719.33
2022-08-26T14:02:30.772Z,99718.11
2022-08-26T14:04:59.137Z,99715.17
2022-08-26T14:07:27.569Z,99717.92
2022-08-26T14:09:56.675Z,99717.92
2022-08-26T14:12:25.285Z,99719.83
2022-08-26T14:14:53.763Z,99722.77
2022-08-26T14:17:24.774Z,99721.44
2022-08-26T14:19:53.952Z,99717.04
2022-08-26T14:22:23.182Z,99713.61
2022-08-26T14:24:51.748Z,99712.69
2022-08-26T14:27:20.183Z,99714.59
2022-08-26T14:29:48.620Z,99711.43
2022-08-26T14:32:28.825Z,99717.33
2022-08-26T14:34:57.343Z,99718.36
2022-08-26T14:37:26.058Z,99707.09
2022-08-26T14:39:56.544Z,99708.27
2022-08-26T14:42:31.570Z,99708.65
2022-08-26T14:45:04.139Z,99706.48
2022-08-26T14:47:32.645Z,99710.58
2022-08-26T14:50:01.260Z,99711.54
2022-08-26T14:52:49.689Z,99714.70
2022-08-26T14:55:18.562Z,99712.08
2022-08-26T14:57:47.006Z,99714.82
2022-08-26T15:00:15.971Z,99708.94
2022-08-26T15:02:45.259Z,99704.42
2022-08-26T15:05:13.984Z,99703.58
2022-08-26T15:07:45.133Z,99699.09
2022-08-26T15:10:16.927Z,99702.17
2022-08-26T15:12:46.010Z,99700.09
2022-08-26T15:15:17.802Z,99692.95
2022-08-26T15:17:46.257Z,99693.36
2022-08-26T15:20:18.008Z,99693.40
2022-08-26T15:22:46.422Z,99692.01
2022-08-26T15:25:15.521Z,99694.44
2022-08-26T15:27:45.439Z,99693.98
2022-08-26T15:30:14.214Z,99690.16
2022-08-26T15:32:42.680Z,99690.43
2022-08-26T15:35:11.135Z,99689.54
2022-08-26T15:37:39.646Z,99685.80
2022-08-26T15:40:11.165Z,99687.84
2022-08-26T15:42:39.827Z,99682.85
2022-08-26T15:45:08.614Z,99683.52
2022-08-26T15:47:55.290Z,99684.38
2022-08-26T15:50:25.587Z,99685.46
2022-08-26T15:52:54.062Z,99681.73
2022-08-26T15:55:23.595Z,99676.31
2022-08-26T15:57:52.060Z,99673.47
2022-08-26T16:00:21.040Z,99674.19
2022-08-26T16:02:50.602Z,99669.98
2022-08-26T16:05:19.108Z,99669.58
2022-08-26T16:07:48.777Z,99666.20
2022-08-26T16:10:18.683Z,99668.56
2022-08-26T16:12:47.157Z,99666.27
2022-08-26T16:15:15.752Z,99667.67
2022-08-26T16:17:44.308Z,99671.52
2022-08-26T16:20:13.439Z,99666.40
2022-08-26T16:22:41.876Z,99663.21
2022-08-26T16:25:11.466Z,99659.51
2022-08-26T16:27:39.900Z,99656.92
2022-08-26T16:30:09.140Z,99653.20
2022-08-26T16:32:37.678Z,99652.11
2022-08-26T16:35:06.797Z,99650.70
2022-08-26T16:37:37.681Z,99650.94
2022-08-26T16:40:10.203Z,99646.16
2022-08-26T16:42:39.347Z,99645.02
2022-08-26T16:45:08.669Z,99645.33
2022-08-26T16:47:37.448Z,99651.05
2022-08-26T16:50:09.501Z,99646.40
2022-08-26T16:52:38.161Z,99648.20
2022-08-26T16:55:10.957Z,99649.68
2022-08-26T16:57:43.963Z,99647.20
2022-08-26T17:00:21.232Z,99643.00
2022-08-26T17:02:49.793Z,99644.14
2022-08-26T17:05:18.363Z,99643.54
2022-08-26T17:07:46.950Z,99643.05
2022-08-26T17:10:15.538Z,99641.33
2022-08-26T17:12:50.300Z,99641.42
2022-08-26T17:15:19.204Z,99641.16
2022-08-26T17:17:49.439Z,99639.83
2022-08-26T17:20:44.368Z,99642.89
2022-08-26T17:23:22.331Z,99650.30
2022-08-26T17:25:52.515Z,99643.14
2022-08-26T17:28:20.899Z,99642.69
2022-08-26T17:30:49.286Z,99638.20
2022-08-26T17:33:21.946Z,99631.00
2022-08-26T17:35:53.850Z,99633.54
2022-08-26T17:38:23.205Z,99631.88
2022-08-26T17:40:52.068Z,99630.59
2022-08-26T17:43:20.722Z,99632.77
2022-08-26T17:45:49.741Z,99626.61
2022-08-26T17:48:18.143Z,99630.20
2022-08-26T17:50:49.723Z,99630.36
2022-08-26T17:53:19.364Z,99634.11
2022-08-26T17:55:48.708Z,99632.91
2022-08-26T17:58:23.232Z,99634.84
2022-08-26T18:00:54.673Z,99634.08
2022-08-26T18:03:23.598Z,99634.99
2022-08-26T18:05:53.770Z,99641.17
2022-08-26T18:08:22.124Z,99644.26
2022-08-26T18:10:50.962Z,99647.42
2022-08-26T18:13:19.511Z,99647.58
2022-08-26T18:15:47.978Z,99644.66
2022-08-26T18:18:16.832Z,99649.02
2022-08-26T18:20:46.070Z,99651.87
2022-08-26T18:23:22.210Z,99653.01
2022-08-26T18:25:50.694Z,99653.42
2022-08-26T18:28:19.091Z,99648.05
2022-08-26T18:30:47.629Z,99647.47
2022-08-26T18:33:16.097Z,99645.58
2022-08-26T18:35:45.428Z,99644.75
2022-08-26T18:38:15.330Z,99652.87
2022-08-26T18:40:45.511Z,99654.41
2022-08-26T18:43:13.831Z,99655.09
2022-08-26T18:45:42.231Z,99656.84
2022-08-26T18:48:11.136Z,99660.05
2022-08-26T18:50:43.815Z,99656.20
2022-08-26T18:53:14.414Z,99656.42
2022-08-26T18:55:44.009Z,99662.27
2022-08-26T18:58:12.343Z,99663.27
2022-08-26T19:00:40.670Z,99666.71
2022-08-26T19:03:15.585Z,99673.75
2022-08-26T19:05:47.433Z,99672.09
2022-08-26T19:08:15.900Z,99678.80
2022-08-26T19:10:44.344Z,99676.58
2022-08-26T19:13:14.224Z,99679.10
2022-08-26T19:15:46.902Z,99682.80
2022-08-26T19:18:15.937Z,99690.17
2022-08-26T19:20:47.911Z,99690.07
2022-08-26T19:23:31.511Z,99691.89
2022-08-26T19:26:05.552Z,99699.74
2022-08-26T19:28:34.824Z,99708.10
2022-08-26T19:31:03.880Z,99708.27
2022-08-26T19:33:32.832Z,99707.56
2022-08-26T19:36:03.747Z,99712.95
2022-08-26T19:38:35.295Z,99716.79
2022-08-26T19:41:03.693Z,99717.92
2022-08-26T19:43:32.361Z,99721.63
2022-08-26T19:46:00.834Z,99724.69
2022-08-26T19:48:29.772Z,99723.23
2022-08-26T19:50:58.164Z,99725.71
2022-08-26T19:53:26.587Z,99723.89
2022-08-26T19:55:54.956Z,99728.29
2022-08-26T19:58:23.366Z,99731.06
2022-08-26T20:00:51.767Z,99733.38
2022-08-26T20:03:20.267Z,99733.92
2022-08-26T20:05:49.268Z,99730.20
2022-08-26T20:08:21.796Z,99731.92
2022-08-26T20:10:53.044Z,99727.36
2022-08-26T20:13:24.442Z,99726.32
2022-08-26T20:15:54.846Z,99719.30
2022-08-26T20:18:43.905Z,99715.53
2022-08-26T20:21:29.607Z,99702.03
2022-08-26T20:24:04.926Z,99697.15
2022-08-26T20:26:37.499Z,99687.89
2022-08-26T20:29:08.328Z,99682.12
2022-08-26T20:31:38.197Z,99681.59
2022-08-26T20:34:07.605Z,99690.15
2022-08-26T20:36:39.418Z,99697.85
2022-08-26T20:39:08.592Z,99702.21
2022-08-26T20:41:38.204Z,99709.52
2022-08-26T20:44:07.457Z,99710.36
2022-08-26T20:46:37.296Z,99709.58
2022-08-26T20:49:07.484Z,99704.17
2022-08-26T20:51:37.507Z,99699.45
2022-08-26T20:54:07.150Z,99701.23
2022-08-26T20:56:36.407Z,99700.23
2022-08-26T20:59:07.076Z,99704.30
2022-08-26T21:01:42.107Z,99706.80
2022-08-26T21:04:18.175Z,99706.51
2022-08-26T21:06:52.308Z,99708.83
2022-08-26T21:09:25.656Z,99708.73
2022-08-26T21:11:55.338Z,99703.39
2022-08-26T21:14:25.998Z,99706.67
2022-08-26T21:16:54.883Z,99713.77
2022-08-26T21:19:23.774Z,99713.28
2022-08-26T21:21:52.444Z,99710.44
2022-08-26T21:24:21.456Z,99708.55
2022-08-26T21:26:50.056Z,99705.05
2022-08-26T21:29:18.560Z,99701.89
2022-08-26T21:31:47.194Z,99698.39
2022-08-26T21:34:20.079Z,99696.38
2022-08-26T21:36:49.798Z,99693.35
2022-08-26T21:39:18.274Z,99690.49
2022-08-26T21:41:47.577Z,99689.67
2022-08-26T21:44:18.200Z,99692.17
2022-08-26T21:46:47.231Z,99699.01
2022-08-26T21:49:18.421Z,99700.48
2022-08-26T21:51:48.879Z,99703.73
2022-08-26T21:54:18.375Z,99707.66
2022-08-26T21:56:47.836Z,99705.58
2022-08-26T21:59:23.411Z,99707.71
2022-08-26T22:01:51.956Z,99697.81
2022-08-26T22:04:21.032Z,99695.58
2022-08-26T22:06:53.538Z,99693.05
2022-08-26T22:09:28.345Z,99693.42
2022-08-26T22:12:01.033Z,99700.29
2022-08-26T22:14:30.986Z,99700.60
2022-08-26T22:17:00.646Z,99703.77
2022-08-26T22:19:31.899Z,99699.64
2022-08-26T22:22:03.728Z,99695.87
2022-08-26T22:24:32.144Z,99688.64
2022-08-26T22:27:00.594Z,99684.77
2022-08-26T22:29:29.205Z,99676.95
2022-08-26T22:31:57.846Z,99673.60
2022-08-26T22:34:26.965Z,99671.27
2022-08-26T22:36:55.637Z,99671.39
2022-08-26T22:39:26.740Z,99678.35
2022-08-26T22:41:56.924Z,99674.41
2022-08-26T22:44:25.689Z,99672.44
2022-08-26T22:46:54.723Z,99665.90
2022-08-26T22:49:24.475Z,99660.58
2022-08-26T22:51:52.936Z,99661.28
2022-08-26T22:54:21.581Z,99656.69
2022-08-26T22:56:50.076Z,99658.67
2022-08-26T22:59:18.690Z,99665.34
2022-08-26T23:01:47.544Z,99670.70
2022-08-26T23:04:16.255Z,99670.56
2022-08-26T23:06:47.848Z,99670.20
2022-08-26T23:09:18.684Z,99670.14
2022-08-26T23:11:48.714Z,99666.64
2022-08-26T23:14:18.953Z,99657.86
2022-08-26T23:16:48.123Z,99656.21
2022-08-26T23:19:21.142Z,99656.21
2022-08-26T23:21:49.884Z,99657.21
2022-08-26T23:24:19.187Z,99661.03
2022-08-26T23:26:47.610Z,99665.77
2022-08-26T23:29:16.833Z,99661.44
2022-08-26T23:31:45.867Z,99662.68
2022-08-26T23:34:33.199Z,99661.44
2022-08-26T23:37:02.887Z,99654.53
2022-08-26T23:39:36.962Z,99655.24
2022-08-26T23:42:06.912Z,99658.58
2022-08-26T23:44:35.364Z,99658.77
2022-08-26T23:47:05.099Z,99661.03
2022-08-26T23:49:35.268Z,99662.89
2022-08-26T23:52:24.813Z,99665.56
2022-08-26T23:54:53.797Z,99668.98
2022-08-26T23:57:25.337Z,99665.89
2022-08-26T23:59:53.854Z,99661.03
